sensor_id;sensor_type;location;lat;lon;timestamp;P1;durP1;ratioP1;P2;durP2;ratioP2
33455;SDS011;19791;51.916;8.412;2023-07-09T00:00:01;10.18;;;7.13;;
33455;SDS011;19791;51.916;8.412;2023-07-09T00:02:26;8.95;;;6.75;;
33455;SDS011;19791;51.916;8.412;2023-07-09T00:04:52;10.18;;;6.95;;
33455;SDS011;19791;51.916;8.412;2023-07-09T00:07:36;12.43;;;7.00;;
33455;SDS011;19791;51.916;8.412;2023-07-09T00:10:01;8.77;;;6.82;;
33455;SDS011;19791;51.916;8.412;2023-07-09T00:12:27;10.38;;;6.47;;
33455;SDS011;19791;51.916;8.412;2023-07-09T00:14:53;8.95;;;5.88;;
33455;SDS011;19791;51.916;8.412;2023-07-09T00:17:26;8.45;;;6.53;;
33455;SDS011;19791;51.916;8.412;2023-07-09T00:19:56;9.07;;;6.93;;
33455;SDS011;19791;51.916;8.412;2023-07-09T00:22:22;10.52;;;7.28;;
33455;SDS011;19791;51.916;8.412;2023-07-09T00:24:49;8.82;;;7.15;;
33455;SDS011;19791;51.916;8.412;2023-07-09T00:27:19;12.35;;;7.20;;
33455;SDS011;19791;51.916;8.412;2023-07-09T00:29:47;12.05;;;7.68;;
33455;SDS011;19791;51.916;8.412;2023-07-09T00:32:13;13.00;;;8.30;;
33455;SDS011;19791;51.916;8.412;2023-07-09T00:34:43;10.55;;;8.50;;
33455;SDS011;19791;51.916;8.412;2023-07-09T00:37:13;9.07;;;7.85;;
33455;SDS011;19791;51.916;8.412;2023-07-09T00:39:44;10.57;;;7.18;;
33455;SDS011;19791;51.916;8.412;2023-07-09T00:42:20;12.25;;;8.18;;
33455;SDS011;19791;51.916;8.412;2023-07-09T00:44:52;11.77;;;7.47;;
33455;SDS011;19791;51.916;8.412;2023-07-09T00:49:52;8.70;;;6.90;;
33455;SDS011;19791;51.916;8.412;2023-07-09T00:52:54;10.18;;;7.10;;
33455;SDS011;19791;51.916;8.412;2023-07-09T00:55:24;10.05;;;7.80;;
33455;SDS011;19791;51.916;8.412;2023-07-09T00:57:54;9.45;;;6.85;;
33455;SDS011;19791;51.916;8.412;2023-07-09T01:00:26;10.15;;;6.82;;
33455;SDS011;19791;51.916;8.412;2023-07-09T01:03:07;11.65;;;8.80;;
33455;SDS011;19791;51.916;8.412;2023-07-09T01:05:35;10.55;;;7.18;;
33455;SDS011;19791;51.916;8.412;2023-07-09T01:08:03;8.52;;;6.57;;
33455;SDS011;19791;51.916;8.412;2023-07-09T01:10:30;10.23;;;8.23;;
33455;SDS011;19791;51.916;8.412;2023-07-09T01:12:56;10.98;;;7.47;;
33455;SDS011;19791;51.916;8.412;2023-07-09T01:15:22;13.27;;;8.13;;
33455;SDS011;19791;51.916;8.412;2023-07-09T01:17:48;11.15;;;8.45;;
33455;SDS011;19791;51.916;8.412;2023-07-09T01:20:19;38.50;;;9.00;;
33455;SDS011;19791;51.916;8.412;2023-07-09T01:22:47;12.02;;;7.93;;
33455;SDS011;19791;51.916;8.412;2023-07-09T01:25:16;9.52;;;7.80;;
33455;SDS011;19791;51.916;8.412;2023-07-09T01:27:44;9.20;;;7.82;;
33455;SDS011;19791;51.916;8.412;2023-07-09T01:30:34;11.00;;;8.23;;
33455;SDS011;19791;51.916;8.412;2023-07-09T01:33:00;11.02;;;8.50;;
33455;SDS011;19791;51.916;8.412;2023-07-09T01:35:27;11.38;;;8.32;;
33455;SDS011;19791;51.916;8.412;2023-07-09T01:37:54;8.48;;;7.35;;
33455;SDS011;19791;51.916;8.412;2023-07-09T01:40:21;12.52;;;8.05;;
33455;SDS011;19791;51.916;8.412;2023-07-09T01:42:49;12.25;;;7.90;;
33455;SDS011;19791;51.916;8.412;2023-07-09T01:45:15;13.18;;;8.63;;
33455;SDS011;19791;51.916;8.412;2023-07-09T01:47:41;12.88;;;8.65;;
33455;SDS011;19791;51.916;8.412;2023-07-09T01:50:08;13.85;;;8.90;;
33455;SDS011;19791;51.916;8.412;2023-07-09T01:52:36;13.63;;;10.02;;
33455;SDS011;19791;51.916;8.412;2023-07-09T01:55:04;9.60;;;8.30;;
33455;SDS011;19791;51.916;8.412;2023-07-09T01:57:30;10.48;;;8.65;;
33455;SDS011;19791;51.916;8.412;2023-07-09T02:00:00;12.18;;;7.93;;
33455;SDS011;19791;51.916;8.412;2023-07-09T02:02:30;13.98;;;9.00;;
33455;SDS011;19791;51.916;8.412;2023-07-09T02:04:57;12.43;;;9.15;;
33455;SDS011;19791;51.916;8.412;2023-07-09T02:07:23;11.13;;;8.63;;
33455;SDS011;19791;51.916;8.412;2023-07-09T02:09:50;10.13;;;8.57;;
33455;SDS011;19791;51.916;8.412;2023-07-09T02:12:16;16.08;;;9.48;;
33455;SDS011;19791;51.916;8.412;2023-07-09T02:14:43;11.45;;;8.77;;
33455;SDS011;19791;51.916;8.412;2023-07-09T02:17:10;14.80;;;9.77;;
33455;SDS011;19791;51.916;8.412;2023-07-09T02:19:37;12.30;;;8.07;;
33455;SDS011;19791;51.916;8.412;2023-07-09T02:22:03;11.45;;;8.68;;
33455;SDS011;19791;51.916;8.412;2023-07-09T02:24:30;9.02;;;7.78;;
33455;SDS011;19791;51.916;8.412;2023-07-09T02:26:57;8.45;;;7.32;;
33455;SDS011;19791;51.916;8.412;2023-07-09T02:29:24;12.43;;;8.25;;
33455;SDS011;19791;51.916;8.412;2023-07-09T02:31:51;9.82;;;7.60;;
33455;SDS011;19791;51.916;8.412;2023-07-09T02:34:18;9.27;;;7.80;;
33455;SDS011;19791;51.916;8.412;2023-07-09T02:36:44;11.70;;;7.38;;
33455;SDS011;19791;51.916;8.412;2023-07-09T02:39:11;10.93;;;7.68;;
33455;SDS011;19791;51.916;8.412;2023-07-09T02:41:38;10.65;;;8.75;;
33455;SDS011;19791;51.916;8.412;2023-07-09T02:44:07;9.02;;;8.13;;
33455;SDS011;19791;51.916;8.412;2023-07-09T02:46:33;14.05;;;8.75;;
33455;SDS011;19791;51.916;8.412;2023-07-09T02:49:00;12.68;;;8.63;;
33455;SDS011;19791;51.916;8.412;2023-07-09T02:51:26;10.48;;;8.35;;
33455;SDS011;19791;51.916;8.412;2023-07-09T02:53:53;12.00;;;8.55;;
33455;SDS011;19791;51.916;8.412;2023-07-09T02:56:19;10.77;;;8.48;;
33455;SDS011;19791;51.916;8.412;2023-07-09T02:58:45;11.32;;;8.68;;
33455;SDS011;19791;51.916;8.412;2023-07-09T03:01:11;14.55;;;8.90;;
33455;SDS011;19791;51.916;8.412;2023-07-09T03:03:37;9.48;;;7.63;;
33455;SDS011;19791;51.916;8.412;2023-07-09T03:06:03;11.57;;;9.02;;
33455;SDS011;19791;51.916;8.412;2023-07-09T03:08:29;9.13;;;8.23;;
33455;SDS011;19791;51.916;8.412;2023-07-09T03:10:55;10.63;;;8.55;;
33455;SDS011;19791;51.916;8.412;2023-07-09T03:13:21;16.75;;;8.55;;
33455;SDS011;19791;51.916;8.412;2023-07-09T03:15:56;10.90;;;8.68;;
33455;SDS011;19791;51.916;8.412;2023-07-09T03:18:23;11.02;;;9.20;;
33455;SDS011;19791;51.916;8.412;2023-07-09T03:20:49;9.90;;;8.45;;
33455;SDS011;19791;51.916;8.412;2023-07-09T03:23:15;12.40;;;8.52;;
33455;SDS011;19791;51.916;8.412;2023-07-09T03:25:41;12.10;;;8.63;;
33455;SDS011;19791;51.916;8.412;2023-07-09T03:28:10;12.02;;;8.35;;
33455;SDS011;19791;51.916;8.412;2023-07-09T03:30:43;15.73;;;9.20;;
33455;SDS011;19791;51.916;8.412;2023-07-09T03:33:11;10.80;;;8.85;;
33455;SDS011;19791;51.916;8.412;2023-07-09T03:35:37;11.00;;;8.70;;
33455;SDS011;19791;51.916;8.412;2023-07-09T03:38:04;12.40;;;9.48;;
33455;SDS011;19791;51.916;8.412;2023-07-09T03:40:30;11.90;;;8.02;;
33455;SDS011;19791;51.916;8.412;2023-07-09T03:42:56;9.90;;;8.85;;
33455;SDS011;19791;51.916;8.412;2023-07-09T03:45:22;11.48;;;8.93;;
33455;SDS011;19791;51.916;8.412;2023-07-09T03:47:48;10.23;;;9.10;;
33455;SDS011;19791;51.916;8.412;2023-07-09T03:50:14;12.32;;;8.40;;
33455;SDS011;19791;51.916;8.412;2023-07-09T03:52:39;10.98;;;8.75;;
33455;SDS011;19791;51.916;8.412;2023-07-09T03:55:06;14.20;;;10.00;;
33455;SDS011;19791;51.916;8.412;2023-07-09T03:57:32;11.32;;;9.18;;
33455;SDS011;19791;51.916;8.412;2023-07-09T03:59:58;13.50;;;9.25;;
33455;SDS011;19791;51.916;8.412;2023-07-09T04:02:24;9.20;;;8.23;;
33455;SDS011;19791;51.916;8.412;2023-07-09T04:04:49;9.55;;;8.10;;
33455;SDS011;19791;51.916;8.412;2023-07-09T04:07:15;10.55;;;8.85;;
33455;SDS011;19791;51.916;8.412;2023-07-09T04:09:41;13.32;;;9.23;;
33455;SDS011;19791;51.916;8.412;2023-07-09T04:12:07;10.63;;;9.43;;
33455;SDS011;19791;51.916;8.412;2023-07-09T04:14:34;13.23;;;9.20;;
33455;SDS011;19791;51.916;8.412;2023-07-09T04:16:59;12.32;;;9.20;;
33455;SDS011;19791;51.916;8.412;2023-07-09T04:19:25;12.10;;;9.88;;
33455;SDS011;19791;51.916;8.412;2023-07-09T04:21:51;11.43;;;8.50;;
33455;SDS011;19791;51.916;8.412;2023-07-09T04:24:17;13.43;;;8.82;;
33455;SDS011;19791;51.916;8.412;2023-07-09T04:26:43;10.45;;;9.23;;
33455;SDS011;19791;51.916;8.412;2023-07-09T04:29:09;12.50;;;8.73;;
33455;SDS011;19791;51.916;8.412;2023-07-09T04:31:35;11.68;;;8.75;;
33455;SDS011;19791;51.916;8.412;2023-07-09T04:34:02;10.80;;;8.73;;
33455;SDS011;19791;51.916;8.412;2023-07-09T04:36:28;12.63;;;8.90;;
33455;SDS011;19791;51.916;8.412;2023-07-09T04:38:54;11.60;;;8.50;;
33455;SDS011;19791;51.916;8.412;2023-07-09T04:41:19;9.95;;;8.65;;
33455;SDS011;19791;51.916;8.412;2023-07-09T04:43:45;17.15;;;8.93;;
33455;SDS011;19791;51.916;8.412;2023-07-09T04:46:11;11.00;;;8.20;;
33455;SDS011;19791;51.916;8.412;2023-07-09T04:48:37;8.68;;;7.78;;
33455;SDS011;19791;51.916;8.412;2023-07-09T04:51:03;9.15;;;7.97;;
33455;SDS011;19791;51.916;8.412;2023-07-09T04:53:29;10.65;;;8.32;;
33455;SDS011;19791;51.916;8.412;2023-07-09T04:55:55;11.07;;;8.80;;
33455;SDS011;19791;51.916;8.412;2023-07-09T04:58:21;11.48;;;9.15;;
33455;SDS011;19791;51.916;8.412;2023-07-09T05:00:47;11.70;;;8.45;;
33455;SDS011;19791;51.916;8.412;2023-07-09T05:03:16;9.65;;;8.02;;
33455;SDS011;19791;51.916;8.412;2023-07-09T05:05:46;11.63;;;9.55;;
33455;SDS011;19791;51.916;8.412;2023-07-09T05:08:13;10.88;;;7.93;;
33455;SDS011;19791;51.916;8.412;2023-07-09T05:10:42;12.05;;;8.32;;
33455;SDS011;19791;51.916;8.412;2023-07-09T05:13:09;10.45;;;8.90;;
33455;SDS011;19791;51.916;8.412;2023-07-09T05:15:34;12.98;;;8.82;;
33455;SDS011;19791;51.916;8.412;2023-07-09T05:18:00;10.48;;;8.68;;
33455;SDS011;19791;51.916;8.412;2023-07-09T05:20:26;11.55;;;8.70;;
33455;SDS011;19791;51.916;8.412;2023-07-09T05:22:51;11.18;;;8.50;;
33455;SDS011;19791;51.916;8.412;2023-07-09T05:25:17;9.45;;;7.78;;
33455;SDS011;19791;51.916;8.412;2023-07-09T05:27:43;12.13;;;8.50;;
33455;SDS011;19791;51.916;8.412;2023-07-09T05:30:09;11.95;;;8.07;;
33455;SDS011;19791;51.916;8.412;2023-07-09T05:32:36;14.65;;;8.70;;
33455;SDS011;19791;51.916;8.412;2023-07-09T05:35:02;14.98;;;8.52;;
33455;SDS011;19791;51.916;8.412;2023-07-09T05:37:29;11.27;;;7.55;;
33455;SDS011;19791;51.916;8.412;2023-07-09T05:39:54;11.63;;;7.45;;
33455;SDS011;19791;51.916;8.412;2023-07-09T05:42:20;16.55;;;9.00;;
33455;SDS011;19791;51.916;8.412;2023-07-09T05:44:46;12.50;;;9.65;;
33455;SDS011;19791;51.916;8.412;2023-07-09T05:47:12;11.30;;;8.60;;
33455;SDS011;19791;51.916;8.412;2023-07-09T05:49:38;10.45;;;8.10;;
33455;SDS011;19791;51.916;8.412;2023-07-09T05:52:04;8.57;;;7.70;;
33455;SDS011;19791;51.916;8.412;2023-07-09T05:54:30;10.23;;;7.82;;
33455;SDS011;19791;51.916;8.412;2023-07-09T05:56:56;15.60;;;8.95;;
33455;SDS011;19791;51.916;8.412;2023-07-09T05:59:22;10.05;;;7.68;;
33455;SDS011;19791;51.916;8.412;2023-07-09T06:01:48;8.90;;;7.18;;
33455;SDS011;19791;51.916;8.412;2023-07-09T06:04:14;11.05;;;7.90;;
33455;SDS011;19791;51.916;8.412;2023-07-09T06:06:42;10.95;;;7.95;;
33455;SDS011;19791;51.916;8.412;2023-07-09T06:09:08;10.02;;;7.82;;
33455;SDS011;19791;51.916;8.412;2023-07-09T06:11:34;10.55;;;8.20;;
33455;SDS011;19791;51.916;8.412;2023-07-09T06:14:00;10.85;;;7.68;;
33455;SDS011;19791;51.916;8.412;2023-07-09T06:16:26;11.30;;;8.30;;
33455;SDS011;19791;51.916;8.412;2023-07-09T06:18:52;10.05;;;7.78;;
33455;SDS011;19791;51.916;8.412;2023-07-09T06:21:18;13.20;;;8.35;;
33455;SDS011;19791;51.916;8.412;2023-07-09T06:23:44;9.93;;;7.28;;
33455;SDS011;19791;51.916;8.412;2023-07-09T06:26:11;12.77;;;8.20;;
33455;SDS011;19791;51.916;8.412;2023-07-09T06:28:37;11.70;;;7.47;;
33455;SDS011;19791;51.916;8.412;2023-07-09T06:31:02;9.48;;;7.65;;
33455;SDS011;19791;51.916;8.412;2023-07-09T06:33:28;12.32;;;8.68;;
33455;SDS011;19791;51.916;8.412;2023-07-09T06:35:56;9.00;;;7.45;;
33455;SDS011;19791;51.916;8.412;2023-07-09T06:38:24;12.80;;;7.47;;
33455;SDS011;19791;51.916;8.412;2023-07-09T06:40:51;11.40;;;8.30;;
33455;SDS011;19791;51.916;8.412;2023-07-09T06:43:17;9.63;;;7.65;;
33455;SDS011;19791;51.916;8.412;2023-07-09T06:45:53;8.52;;;7.55;;
33455;SDS011;19791;51.916;8.412;2023-07-09T06:48:20;11.45;;;7.65;;
33455;SDS011;19791;51.916;8.412;2023-07-09T06:50:47;9.38;;;6.88;;
33455;SDS011;19791;51.916;8.412;2023-07-09T06:53:13;10.48;;;7.43;;
33455;SDS011;19791;51.916;8.412;2023-07-09T06:55:38;10.30;;;8.15;;
33455;SDS011;19791;51.916;8.412;2023-07-09T06:58:04;9.57;;;7.60;;
33455;SDS011;19791;51.916;8.412;2023-07-09T07:00:30;10.48;;;6.88;;
33455;SDS011;19791;51.916;8.412;2023-07-09T07:02:56;10.80;;;7.43;;
33455;SDS011;19791;51.916;8.412;2023-07-09T07:05:22;12.15;;;7.60;;
33455;SDS011;19791;51.916;8.412;2023-07-09T07:07:48;8.60;;;6.95;;
33455;SDS011;19791;51.916;8.412;2023-07-09T07:10:13;9.48;;;7.43;;
33455;SDS011;19791;51.916;8.412;2023-07-09T07:12:46;10.45;;;7.32;;
33455;SDS011;19791;51.916;8.412;2023-07-09T07:15:13;13.60;;;7.47;;
33455;SDS011;19791;51.916;8.412;2023-07-09T07:17:42;13.13;;;7.38;;
33455;SDS011;19791;51.916;8.412;2023-07-09T07:20:09;11.32;;;7.80;;
33455;SDS011;19791;51.916;8.412;2023-07-09T07:22:36;11.18;;;8.10;;
33455;SDS011;19791;51.916;8.412;2023-07-09T07:25:03;9.98;;;7.30;;
33455;SDS011;19791;51.916;8.412;2023-07-09T07:27:29;9.75;;;6.80;;
33455;SDS011;19791;51.916;8.412;2023-07-09T07:29:55;11.73;;;7.18;;
33455;SDS011;19791;51.916;8.412;2023-07-09T07:32:21;10.18;;;7.63;;
33455;SDS011;19791;51.916;8.412;2023-07-09T07:34:47;9.88;;;6.95;;
33455;SDS011;19791;51.916;8.412;2023-07-09T07:37:13;9.82;;;6.57;;
33455;SDS011;19791;51.916;8.412;2023-07-09T07:39:39;12.10;;;6.97;;
33455;SDS011;19791;51.916;8.412;2023-07-09T07:42:05;8.85;;;6.32;;
33455;SDS011;19791;51.916;8.412;2023-07-09T07:44:32;15.30;;;7.68;;
33455;SDS011;19791;51.916;8.412;2023-07-09T07:46:57;8.95;;;6.00;;
33455;SDS011;19791;51.916;8.412;2023-07-09T07:49:23;12.00;;;6.47;;
33455;SDS011;19791;51.916;8.412;2023-07-09T07:51:49;11.85;;;6.00;;
33455;SDS011;19791;51.916;8.412;2023-07-09T07:54:14;10.10;;;7.22;;
33455;SDS011;19791;51.916;8.412;2023-07-09T07:56:40;10.90;;;6.90;;
33455;SDS011;19791;51.916;8.412;2023-07-09T07:59:06;17.08;;;6.30;;
33455;SDS011;19791;51.916;8.412;2023-07-09T08:01:32;8.63;;;6.47;;
33455;SDS011;19791;51.916;8.412;2023-07-09T08:04:00;11.68;;;5.63;;
33455;SDS011;19791;51.916;8.412;2023-07-09T08:06:27;8.38;;;6.05;;
33455;SDS011;19791;51.916;8.412;2023-07-09T08:08:53;8.05;;;5.88;;
33455;SDS011;19791;51.916;8.412;2023-07-09T08:11:19;8.68;;;6.20;;
33455;SDS011;19791;51.916;8.412;2023-07-09T08:13:44;8.65;;;5.53;;
33455;SDS011;19791;51.916;8.412;2023-07-09T08:16:10;9.60;;;6.00;;
33455;SDS011;19791;51.916;8.412;2023-07-09T08:18:37;9.50;;;6.55;;
33455;SDS011;19791;51.916;8.412;2023-07-09T08:21:03;9.90;;;6.60;;
33455;SDS011;19791;51.916;8.412;2023-07-09T08:23:29;7.28;;;5.93;;
33455;SDS011;19791;51.916;8.412;2023-07-09T08:25:56;8.95;;;6.10;;
33455;SDS011;19791;51.916;8.412;2023-07-09T08:28:23;8.15;;;6.57;;
33455;SDS011;19791;51.916;8.412;2023-07-09T08:30:51;7.63;;;6.28;;
33455;SDS011;19791;51.916;8.412;2023-07-09T08:33:21;11.93;;;7.25;;
33455;SDS011;19791;51.916;8.412;2023-07-09T08:35:51;10.63;;;6.60;;
33455;SDS011;19791;51.916;8.412;2023-07-09T08:38:19;9.88;;;6.47;;
33455;SDS011;19791;51.916;8.412;2023-07-09T08:46:07;10.63;;;6.35;;
33455;SDS011;19791;51.916;8.412;2023-07-09T08:48:55;6.97;;;4.90;;
33455;SDS011;19791;51.916;8.412;2023-07-09T08:53:53;7.80;;;5.43;;
33455;SDS011;19791;51.916;8.412;2023-07-09T08:56:22;9.70;;;6.07;;
33455;SDS011;19791;51.916;8.412;2023-07-09T08:58:50;8.20;;;6.43;;
33455;SDS011;19791;51.916;8.412;2023-07-09T09:01:20;7.63;;;6.10;;
33455;SDS011;19791;51.916;8.412;2023-07-09T09:03:53;7.30;;;5.60;;
33455;SDS011;19791;51.916;8.412;2023-07-09T09:06:27;8.27;;;5.93;;
33455;SDS011;19791;51.916;8.412;2023-07-09T09:14:42;7.20;;;5.65;;
33455;SDS011;19791;51.916;8.412;2023-07-09T09:17:13;8.75;;;5.82;;
33455;SDS011;19791;51.916;8.412;2023-07-09T09:22:12;9.13;;;6.10;;
33455;SDS011;19791;51.916;8.412;2023-07-09T09:27:26;8.00;;;6.00;;
33455;SDS011;19791;51.916;8.412;2023-07-09T09:29:52;8.65;;;5.97;;
33455;SDS011;19791;51.916;8.412;2023-07-09T09:32:23;10.35;;;6.05;;
33455;SDS011;19791;51.916;8.412;2023-07-09T09:34:53;6.57;;;5.70;;
33455;SDS011;19791;51.916;8.412;2023-07-09T09:37:37;10.63;;;6.20;;
33455;SDS011;19791;51.916;8.412;2023-07-09T09:40:04;12.93;;;6.10;;
33455;SDS011;19791;51.916;8.412;2023-07-09T09:42:30;7.70;;;6.90;;
33455;SDS011;19791;51.916;8.412;2023-07-09T09:44:57;8.77;;;6.05;;
33455;SDS011;19791;51.916;8.412;2023-07-09T09:47:25;7.50;;;5.85;;
33455;SDS011;19791;51.916;8.412;2023-07-09T09:49:53;7.75;;;6.75;;
33455;SDS011;19791;51.916;8.412;2023-07-09T09:52:19;9.48;;;6.53;;
33455;SDS011;19791;51.916;8.412;2023-07-09T09:54:52;8.20;;;6.20;;
33455;SDS011;19791;51.916;8.412;2023-07-09T09:57:21;8.35;;;6.10;;
33455;SDS011;19791;51.916;8.412;2023-07-09T09:59:49;10.73;;;6.13;;
33455;SDS011;19791;51.916;8.412;2023-07-09T10:02:22;10.50;;;6.10;;
33455;SDS011;19791;51.916;8.412;2023-07-09T10:04:49;7.78;;;6.60;;
33455;SDS011;19791;51.916;8.412;2023-07-09T10:10:02;9.77;;;7.28;;
33455;SDS011;19791;51.916;8.412;2023-07-09T10:20:27;8.52;;;7.22;;
33455;SDS011;19791;51.916;8.412;2023-07-09T10:23:23;8.98;;;6.03;;
33455;SDS011;19791;51.916;8.412;2023-07-09T10:26:09;8.18;;;6.40;;
33455;SDS011;19791;51.916;8.412;2023-07-09T10:28:43;13.80;;;7.18;;
33455;SDS011;19791;51.916;8.412;2023-07-09T10:34:06;8.15;;;5.93;;
33455;SDS011;19791;51.916;8.412;2023-07-09T10:36:43;9.68;;;6.57;;
33455;SDS011;19791;51.916;8.412;2023-07-09T10:39:36;10.80;;;6.68;;
33455;SDS011;19791;51.916;8.412;2023-07-09T10:42:07;12.18;;;6.95;;
33455;SDS011;19791;51.916;8.412;2023-07-09T10:44:43;7.57;;;6.63;;
33455;SDS011;19791;51.916;8.412;2023-07-09T10:47:27;6.63;;;5.90;;
33455;SDS011;19791;51.916;8.412;2023-07-09T10:50:00;8.60;;;7.10;;
33455;SDS011;19791;51.916;8.412;2023-07-09T10:52:35;11.25;;;6.30;;
33455;SDS011;19791;51.916;8.412;2023-07-09T10:55:13;9.57;;;6.35;;
33455;SDS011;19791;51.916;8.412;2023-07-09T10:57:45;6.85;;;6.00;;
33455;SDS011;19791;51.916;8.412;2023-07-09T11:00:25;7.97;;;5.88;;
33455;SDS011;19791;51.916;8.412;2023-07-09T11:03:09;9.43;;;6.40;;
33455;SDS011;19791;51.916;8.412;2023-07-09T11:05:44;6.97;;;6.07;;
33455;SDS011;19791;51.916;8.412;2023-07-09T11:08:12;8.63;;;6.07;;
33455;SDS011;19791;51.916;8.412;2023-07-09T11:10:56;6.97;;;6.15;;
33455;SDS011;19791;51.916;8.412;2023-07-09T11:15:54;6.78;;;5.40;;
33455;SDS011;19791;51.916;8.412;2023-07-09T11:18:25;6.30;;;5.70;;
33455;SDS011;19791;51.916;8.412;2023-07-09T11:21:03;8.00;;;6.18;;
33455;SDS011;19791;51.916;8.412;2023-07-09T11:24:04;7.28;;;6.00;;
33455;SDS011;19791;51.916;8.412;2023-07-09T11:26:31;6.80;;;5.85;;
33455;SDS011;19791;51.916;8.412;2023-07-09T11:31:34;9.00;;;5.88;;
33455;SDS011;19791;51.916;8.412;2023-07-09T11:36:45;8.90;;;5.97;;
33455;SDS011;19791;51.916;8.412;2023-07-09T11:42:03;5.80;;;5.22;;
33455;SDS011;19791;51.916;8.412;2023-07-09T11:45:20;7.85;;;5.85;;
33455;SDS011;19791;51.916;8.412;2023-07-09T11:48:00;8.98;;;6.18;;
33455;SDS011;19791;51.916;8.412;2023-07-09T11:50:41;8.35;;;6.25;;
33455;SDS011;19791;51.916;8.412;2023-07-09T11:55:49;6.80;;;5.57;;
33455;SDS011;19791;51.916;8.412;2023-07-09T11:58:15;11.13;;;5.53;;
33455;SDS011;19791;51.916;8.412;2023-07-09T12:00:49;9.05;;;6.13;;
33455;SDS011;19791;51.916;8.412;2023-07-09T12:03:20;6.78;;;5.63;;
33455;SDS011;19791;51.916;8.412;2023-07-09T12:05:53;6.10;;;5.38;;
33455;SDS011;19791;51.916;8.412;2023-07-09T12:08:23;6.03;;;5.38;;
33455;SDS011;19791;51.916;8.412;2023-07-09T12:10:57;7.30;;;5.38;;
33455;SDS011;19791;51.916;8.412;2023-07-09T12:13:22;5.95;;;5.40;;
33455;SDS011;19791;51.916;8.412;2023-07-09T12:15:48;10.80;;;5.45;;
33455;SDS011;19791;51.916;8.412;2023-07-09T12:18:14;7.60;;;5.03;;
33455;SDS011;19791;51.916;8.412;2023-07-09T12:20:41;10.52;;;5.97;;
33455;SDS011;19791;51.916;8.412;2023-07-09T12:25:47;5.32;;;4.82;;
33455;SDS011;19791;51.916;8.412;2023-07-09T12:28:15;9.98;;;5.03;;
33455;SDS011;19791;51.916;8.412;2023-07-09T12:30:45;6.80;;;4.70;;
33455;SDS011;19791;51.916;8.412;2023-07-09T12:33:18;9.77;;;5.20;;
33455;SDS011;19791;51.916;8.412;2023-07-09T12:35:46;8.55;;;4.90;;
33455;SDS011;19791;51.916;8.412;2023-07-09T12:38:22;7.05;;;4.63;;
33455;SDS011;19791;51.916;8.412;2023-07-09T12:40:52;7.53;;;4.70;;
33455;SDS011;19791;51.916;8.412;2023-07-09T12:43:19;5.05;;;4.63;;
33455;SDS011;19791;51.916;8.412;2023-07-09T12:45:52;6.80;;;4.97;;
33455;SDS011;19791;51.916;8.412;2023-07-09T12:48:19;6.65;;;4.60;;
33455;SDS011;19791;51.916;8.412;2023-07-09T12:50:48;5.88;;;5.13;;
33455;SDS011;19791;51.916;8.412;2023-07-09T12:53:18;6.57;;;4.57;;
33455;SDS011;19791;51.916;8.412;2023-07-09T12:55:48;5.53;;;5.03;;
33455;SDS011;19791;51.916;8.412;2023-07-09T12:58:23;5.78;;;4.85;;
33455;SDS011;19791;51.916;8.412;2023-07-09T13:00:54;5.15;;;4.57;;
33455;SDS011;19791;51.916;8.412;2023-07-09T13:03:24;7.00;;;4.20;;
33455;SDS011;19791;51.916;8.412;2023-07-09T13:08:48;8.82;;;4.80;;
33455;SDS011;19791;51.916;8.412;2023-07-09T13:11:24;6.97;;;5.07;;
33455;SDS011;19791;51.916;8.412;2023-07-09T13:13:58;8.00;;;5.13;;
33455;SDS011;19791;51.916;8.412;2023-07-09T13:16:25;6.45;;;4.65;;
33455;SDS011;19791;51.916;8.412;2023-07-09T13:18:51;7.40;;;4.97;;
33455;SDS011;19791;51.916;8.412;2023-07-09T13:21:17;7.38;;;5.70;;
33455;SDS011;19791;51.916;8.412;2023-07-09T13:23:44;6.10;;;5.50;;
33455;SDS011;19791;51.916;8.412;2023-07-09T13:26:11;7.82;;;5.22;;
33455;SDS011;19791;51.916;8.412;2023-07-09T13:28:37;5.80;;;4.93;;
33455;SDS011;19791;51.916;8.412;2023-07-09T13:33:38;8.43;;;4.97;;
33455;SDS011;19791;51.916;8.412;2023-07-09T13:36:03;7.22;;;4.82;;
33455;SDS011;19791;51.916;8.412;2023-07-09T13:38:31;12.88;;;5.18;;
33455;SDS011;19791;51.916;8.412;2023-07-09T13:40:59;6.40;;;5.18;;
33455;SDS011;19791;51.916;8.412;2023-07-09T13:43:35;6.95;;;5.65;;
33455;SDS011;19791;51.916;8.412;2023-07-09T13:46:02;9.00;;;5.22;;
33455;SDS011;19791;51.916;8.412;2023-07-09T13:48:29;7.47;;;5.75;;
33455;SDS011;19791;51.916;8.412;2023-07-09T13:50:57;7.15;;;5.55;;
33455;SDS011;19791;51.916;8.412;2023-07-09T13:53:25;14.00;;;6.07;;
33455;SDS011;19791;51.916;8.412;2023-07-09T13:55:55;8.90;;;5.20;;
33455;SDS011;19791;51.916;8.412;2023-07-09T13:58:24;6.75;;;5.50;;
33455;SDS011;19791;51.916;8.412;2023-07-09T14:00:54;7.70;;;5.93;;
33455;SDS011;19791;51.916;8.412;2023-07-09T14:03:26;8.35;;;5.55;;
33455;SDS011;19791;51.916;8.412;2023-07-09T14:05:55;9.38;;;5.75;;
33455;SDS011;19791;51.916;8.412;2023-07-09T14:08:21;9.63;;;5.78;;
33455;SDS011;19791;51.916;8.412;2023-07-09T14:10:47;7.32;;;5.40;;
33455;SDS011;19791;51.916;8.412;2023-07-09T14:13:15;6.97;;;5.40;;
33455;SDS011;19791;51.916;8.412;2023-07-09T14:15:43;8.02;;;5.40;;
33455;SDS011;19791;51.916;8.412;2023-07-09T14:18:12;8.55;;;5.95;;
33455;SDS011;19791;51.916;8.412;2023-07-09T14:20:40;6.82;;;5.93;;
33455;SDS011;19791;51.916;8.412;2023-07-09T14:23:08;10.45;;;5.60;;
33455;SDS011;19791;51.916;8.412;2023-07-09T14:25:36;7.57;;;5.90;;
33455;SDS011;19791;51.916;8.412;2023-07-09T14:28:04;9.30;;;5.88;;
33455;SDS011;19791;51.916;8.412;2023-07-09T14:30:38;8.93;;;5.35;;
33455;SDS011;19791;51.916;8.412;2023-07-09T14:33:08;6.60;;;5.82;;
33455;SDS011;19791;51.916;8.412;2023-07-09T14:35:39;10.40;;;5.07;;
33455;SDS011;19791;51.916;8.412;2023-07-09T14:38:24;7.45;;;5.40;;
33455;SDS011;19791;51.916;8.412;2023-07-09T14:40:51;8.80;;;5.60;;
33455;SDS011;19791;51.916;8.412;2023-07-09T14:43:19;10.25;;;5.05;;
33455;SDS011;19791;51.916;8.412;2023-07-09T14:45:45;8.77;;;5.03;;
33455;SDS011;19791;51.916;8.412;2023-07-09T14:48:11;8.48;;;5.00;;
33455;SDS011;19791;51.916;8.412;2023-07-09T14:50:40;7.72;;;5.65;;
33455;SDS011;19791;51.916;8.412;2023-07-09T14:53:11;10.10;;;6.00;;
33455;SDS011;19791;51.916;8.412;2023-07-09T14:55:46;6.85;;;5.70;;
33455;SDS011;19791;51.916;8.412;2023-07-09T14:58:20;10.88;;;5.30;;
33455;SDS011;19791;51.916;8.412;2023-07-09T15:00:47;7.63;;;6.22;;
33455;SDS011;19791;51.916;8.412;2023-07-09T15:03:18;7.05;;;5.53;;
33455;SDS011;19791;51.916;8.412;2023-07-09T15:05:49;5.40;;;4.90;;
33455;SDS011;19791;51.916;8.412;2023-07-09T15:08:19;6.25;;;5.35;;
33455;SDS011;19791;51.916;8.412;2023-07-09T15:10:50;7.38;;;5.60;;
33455;SDS011;19791;51.916;8.412;2023-07-09T15:13:18;7.07;;;5.18;;
33455;SDS011;19791;51.916;8.412;2023-07-09T15:15:53;7.07;;;5.38;;
33455;SDS011;19791;51.916;8.412;2023-07-09T15:18:19;9.90;;;5.72;;
33455;SDS011;19791;51.916;8.412;2023-07-09T15:20:49;7.18;;;6.13;;
33455;SDS011;19791;51.916;8.412;2023-07-09T15:23:16;9.45;;;6.18;;
33455;SDS011;19791;51.916;8.412;2023-07-09T15:25:43;10.15;;;6.07;;
33455;SDS011;19791;51.916;8.412;2023-07-09T15:28:12;9.23;;;5.90;;
33455;SDS011;19791;51.916;8.412;2023-07-09T15:30:38;10.05;;;5.75;;
33455;SDS011;19791;51.916;8.412;2023-07-09T15:33:04;8.60;;;5.93;;
33455;SDS011;19791;51.916;8.412;2023-07-09T15:35:34;7.85;;;5.53;;
33455;SDS011;19791;51.916;8.412;2023-07-09T15:38:03;15.57;;;5.80;;
33455;SDS011;19791;51.916;8.412;2023-07-09T15:40:38;9.38;;;5.80;;
33455;SDS011;19791;51.916;8.412;2023-07-09T15:43:05;8.65;;;5.45;;
33455;SDS011;19791;51.916;8.412;2023-07-09T15:45:41;12.52;;;6.05;;